createdAt,value
2022-11-16T00:00:39.387Z,71.37
2022-11-16T00:10:43.879Z,70.34
2022-11-16T00:20:46.948Z,70.61
2022-11-16T00:30:59.262Z,70.64
2022-11-16T00:41:02.480Z,70.79
2022-11-16T00:51:07.506Z,70.70
2022-11-16T01:01:12.315Z,70.63
2022-11-16T01:11:35.952Z,70.68
2022-11-16T01:21:39.036Z,70.50
2022-11-16T01:31:43.555Z,70.70
2022-11-16T01:41:46.775Z,70.71
2022-11-16T01:51:54.156Z,70.78
2022-11-16T02:01:57.954Z,70.12
2022-11-16T02:12:13.184Z,70.88
2022-11-16T02:22:21.583Z,71.08
2022-11-16T02:32:29.898Z,70.64
2022-11-16T02:42:37.052Z,70.46
2022-11-16T02:52:41.571Z,71.16
2022-11-16T03:02:49.783Z,70.85
2022-11-16T03:12:54.431Z,70.95
2022-11-16T03:23:00.514Z,70.37
2022-11-16T03:33:09.966Z,70.66
2022-11-16T03:43:13.439Z,70.75
2022-11-16T03:53:17.883Z,71.32
2022-11-16T04:03:21.693Z,70.55
2022-11-16T04:13:47.174Z,71.19
2022-11-16T04:24:10.428Z,70.66
2022-11-16T04:34:32.325Z,70.69
2022-11-16T04:44:50.129Z,72.02
2022-11-16T04:54:54.588Z,72.31
2022-11-16T05:04:57.716Z,71.31
2022-11-16T05:15:02.245Z,70.71
2022-11-16T05:25:06.634Z,71.04
2022-11-16T05:35:11.365Z,72.87
2022-11-16T05:45:19.815Z,71.31
2022-11-16T05:55:25.387Z,71.42
2022-11-16T06:05:28.466Z,70.95
2022-11-16T06:15:33.037Z,70.55
2022-11-16T06:25:36.247Z,70.73
2022-11-16T06:35:40.786Z,70.85
2022-11-16T06:45:43.976Z,70.91
2022-11-16T06:55:48.494Z,70.44
2022-11-16T07:05:51.652Z,70.79
2022-11-16T07:16:02.151Z,70.72
2022-11-16T07:26:06.833Z,70.47
2022-11-16T07:36:12.945Z,70.12
2022-11-16T07:46:45.260Z,70.83
2022-11-16T07:56:42.362Z,70.46
2022-11-16T08:06:47.289Z,70.63
2022-11-16T08:16:51.751Z,70.59
2022-11-16T08:26:57.190Z,70.37
2022-11-16T08:37:01.709Z,71.01
2022-11-16T08:47:04.994Z,71.47
2022-11-16T08:57:09.894Z,70.69
2022-11-16T09:07:13.068Z,70.85
2022-11-16T09:17:22.890Z,71.08
2022-11-16T09:27:26.449Z,71.23
2022-11-16T09:37:31.199Z,75.38
2022-11-16T09:47:42.696Z,78.10
2022-11-16T09:57:48.728Z,75.17
2022-11-16T10:07:54.259Z,77.04
2022-11-16T10:18:09.036Z,73.19
2022-11-16T10:28:27.686Z,76.93
2022-11-16T10:38:32.363Z,79.24
2022-11-16T10:48:41.226Z,74.50
2022-11-16T10:58:54.373Z,78.02
2022-11-16T11:09:16.008Z,73.39
2022-11-16T11:19:26.246Z,73.69
2022-11-16T11:29:32.584Z,74.12
2022-11-16T11:39:37.853Z,73.17
2022-11-16T11:49:43.588Z,72.14
2022-11-16T11:59:48.520Z,73.05
2022-11-16T12:09:54.479Z,73.58
2022-11-16T12:20:22.071Z,71.88
2022-11-16T12:30:25.828Z,71.60
2022-11-16T12:40:37.251Z,71.32
2022-11-16T12:50:54.611Z,76.15
2022-11-16T13:01:19.171Z,74.79
2022-11-16T13:11:26.827Z,73.54
2022-11-16T13:21:36.986Z,73.72
2022-11-16T13:31:44.740Z,73.52
2022-11-16T13:41:50.016Z,71.88
2022-11-16T13:51:55.020Z,71.32
2022-11-16T14:02:01.473Z,71.31
2022-11-16T14:12:52.849Z,70.97
2022-11-16T14:23:03.676Z,70.78
2022-11-16T14:33:06.838Z,70.88
2022-11-16T14:43:19.522Z,70.88
2022-11-16T14:53:41.864Z,70.81
2022-11-16T15:03:53.311Z,70.96
2022-11-16T15:13:56.726Z,70.55
2022-11-16T15:24:23.883Z,70.87
2022-11-16T15:34:24.301Z,70.83
2022-11-16T15:44:29.063Z,70.91
2022-11-16T15:54:54.559Z,70.83
2022-11-16T16:04:58.988Z,70.81
2022-11-16T16:15:23.314Z,71.04
2022-11-16T16:25:30.634Z,70.78
2022-11-16T16:35:33.678Z,71.23
2022-11-16T16:45:41.451Z,71.12
2022-11-16T16:55:46.017Z,70.83
2022-11-16T17:05:50.523Z,70.92
2022-11-16T17:15:53.866Z,71.35
2022-11-16T17:25:58.363Z,70.59
2022-11-16T17:36:03.757Z,71.36
2022-11-16T17:46:10.143Z,71.21
2022-11-16T17:56:14.744Z,71.11
2022-11-16T18:06:20.900Z,71.31
2022-11-16T18:16:25.881Z,70.89
2022-11-16T18:26:30.744Z,70.84
2022-11-16T18:36:34.145Z,70.79
2022-11-16T18:46:40.228Z,70.44
2022-11-16T18:56:43.385Z,70.90
2022-11-16T19:06:48.697Z,70.44
2022-11-16T19:16:56.926Z,70.47
2022-11-16T19:27:02.138Z,70.47
2022-11-16T19:37:05.980Z,70.49
2022-11-16T19:47:10.851Z,71.15
2022-11-16T19:57:15.653Z,70.74
2022-11-16T20:07:21.459Z,70.44
2022-11-16T20:17:25.055Z,70.34
2022-11-16T20:27:29.925Z,70.44
2022-11-16T20:37:33.202Z,70.38
2022-11-16T20:47:37.782Z,70.50
2022-11-16T20:57:41.270Z,70.23
2022-11-16T21:07:46.020Z,70.45
2022-11-16T21:17:49.121Z,70.24
2022-11-16T21:27:53.624Z,70.38
2022-11-16T21:37:56.768Z,70.20
2022-11-16T21:48:01.268Z,70.51
2022-11-16T21:58:04.597Z,70.09
2022-11-16T22:08:11.603Z,70.70
2022-11-16T22:18:14.708Z,72.00
2022-11-16T22:28:20.956Z,70.45
2022-11-16T22:38:24.637Z,70.00
2022-11-16T22:48:32.710Z,70.37
2022-11-16T22:58:36.541Z,70.93
2022-11-16T23:08:41.124Z,70.64
2022-11-16T23:18:44.299Z,70.43
2022-11-16T23:28:49.010Z,70.00
2022-11-16T23:38:52.203Z,70.57
2022-11-16T23:48:56.902Z,70.03
2022-11-16T23:59:00.042Z,70.21
